createdAt,value
2017-08-26T00:00:03.432Z,14
2017-08-26T00:15:03.050Z,14
2017-08-26T00:30:02.650Z,14
2017-08-26T00:45:03.229Z,14
2017-08-26T01:00:02.770Z,14
2017-08-26T01:15:03.350Z,14
2017-08-26T01:30:03.060Z,14
2017-08-26T01:45:02.600Z,14
2017-08-26T02:00:03.144Z,14.1
2017-08-26T02:15:02.746Z,14.1
2017-08-26T02:30:03.429Z,14.1
2017-08-26T02:45:03.050Z,14.1
2017-08-26T03:00:02.579Z,14.1
2017-08-26T03:15:03.149Z,14.1
2017-08-26T03:30:02.835Z,14.1
2017-08-26T03:45:03.428Z,14.1
2017-08-26T04:00:05.460Z,14.1
2017-08-26T04:15:06.796Z,14.1
2017-08-26T04:30:08.127Z,14.1
2017-08-26T04:45:07.275Z,14.1
2017-08-26T05:00:07.300Z,14.1
2017-08-26T05:15:07.248Z,14.2
2017-08-26T05:30:07.351Z,14.2
2017-08-26T05:45:06.994Z,14.2
2017-08-26T06:00:05.614Z,14.2
2017-08-26T06:15:05.827Z,14.2
2017-08-26T06:30:05.452Z,14.3
2017-08-26T06:45:05.546Z,14.3
2017-08-26T07:00:05.724Z,14.4
2017-08-26T07:15:05.888Z,14.4
2017-08-26T07:30:05.455Z,14.4
2017-08-26T07:45:05.659Z,14.5
2017-08-26T08:00:06.979Z,14.6
2017-08-26T08:15:05.634Z,14.6
2017-08-26T08:30:05.545Z,14.7
2017-08-26T08:45:06.922Z,14.8
2017-08-26T09:00:05.490Z,14.8
2017-08-26T09:15:05.951Z,14.9
2017-08-26T09:30:05.896Z,15
2017-08-26T09:45:06.176Z,15.1
2017-08-26T10:00:05.496Z,15.1
2017-08-26T10:15:07.123Z,15.2
2017-08-26T10:30:06.412Z,15.3
2017-08-26T10:45:08.010Z,15.4
2017-08-26T11:00:07.162Z,15.5
2017-08-26T11:15:07.168Z,15.6
2017-08-26T11:30:07.065Z,15.7
2017-08-26T11:45:06.878Z,15.8
2017-08-26T12:00:06.550Z,15.9
2017-08-26T12:15:06.543Z,15.9
2017-08-26T12:30:06.431Z,16
2017-08-26T12:45:05.676Z,16.1
2017-08-26T13:00:05.728Z,16.1
2017-08-26T13:15:05.731Z,16.2
2017-08-26T13:30:06.841Z,16.2
2017-08-26T13:45:07.060Z,16.3
2017-08-26T14:00:06.264Z,16.3
2017-08-26T14:15:07.321Z,16.4
2017-08-26T14:30:07.038Z,16.4
2017-08-26T14:45:06.678Z,16.4
2017-08-26T15:00:06.665Z,16.4
2017-08-26T15:15:06.759Z,16.4
2017-08-26T15:30:06.716Z,16.4
2017-08-26T15:45:05.679Z,16.4
2017-08-26T16:00:05.370Z,16.4
2017-08-26T16:15:06.793Z,16.3
2017-08-26T16:30:06.823Z,16.2
2017-08-26T16:45:06.571Z,16.2
2017-08-26T17:00:05.352Z,16.2
2017-08-26T17:15:06.724Z,16.1
2017-08-26T17:30:05.408Z,16.1
2017-08-26T17:45:06.503Z,16.1
2017-08-26T18:00:05.947Z,16
2017-08-26T18:15:05.712Z,15.9
2017-08-26T18:30:03.377Z,15.9
2017-08-26T18:45:03.612Z,15.8
2017-08-26T19:00:03.452Z,15.8
2017-08-26T19:15:03.537Z,15.8
2017-08-26T19:30:03.152Z,15.7
2017-08-26T19:45:02.734Z,15.6
2017-08-26T20:00:03.332Z,15.6
2017-08-26T20:15:02.957Z,15.5
2017-08-26T20:30:02.568Z,15.4
2017-08-26T20:45:03.171Z,15.4
2017-08-26T21:00:02.680Z,15.3
2017-08-26T21:15:03.283Z,15.2
2017-08-26T21:30:02.962Z,15.2
2017-08-26T21:45:02.516Z,15.1
2017-08-26T22:00:03.119Z,15.1
2017-08-26T22:15:02.751Z,15.1
2017-08-26T22:30:03.388Z,15
2017-08-26T22:45:02.937Z,14.9
2017-08-26T23:00:02.534Z,14.9
2017-08-26T23:15:03.158Z,14.9
2017-08-26T23:30:02.844Z,14.8
2017-08-26T23:45:03.376Z,14.8
